Map

Track Data

SID SEASON NUMBER BASIN SUBBASIN NAME ISO_TIME NATURE LAT LON WMO_WIND WMO_PRES WMO_AGENCY TRACK_TYPE DIST2LAND LANDFALL IFLAG USA_AGENCY USA_ATCF_ID USA_LAT USA_LON USA_RECORD USA_STATUS USA_WIND USA_PRES USA_SSHS USA_R34_NE USA_R34_SE USA_R34_SW USA_R34_NW USA_R50_NE USA_R50_SE USA_R50_SW USA_R50_NW USA_R64_NE USA_R64_SE USA_R64_SW USA_R64_NW USA_POCI USA_ROCI USA_RMW USA_EYE TOKYO_LAT TOKYO_LON TOKYO_GRADE TOKYO_WIND TOKYO_PRES TOKYO_R50_DIR TOKYO_R50_LONG TOKYO_R50_SHORT TOKYO_R30_DIR TOKYO_R30_LONG TOKYO_R30_SHORT TOKYO_LAND CMA_LAT CMA_LON CMA_CAT CMA_WIND CMA_PRES HKO_LAT HKO_LON HKO_CAT HKO_WIND HKO_PRES NEWDELHI_LAT NEWDELHI_LON NEWDELHI_GRADE NEWDELHI_WIND NEWDELHI_PRES NEWDELHI_CI NEWDELHI_DP NEWDELHI_POCI REUNION_LAT REUNION_LON REUNION_TYPE REUNION_WIND REUNION_PRES REUNION_TNUM REUNION_CI REUNION_RMW REUNION_R34_NE REUNION_R34_SE REUNION_R34_SW REUNION_R34_NW REUNION_R50_NE REUNION_R50_SE REUNION_R50_SW REUNION_R50_NW REUNION_R64_NE REUNION_R64_SE REUNION_R64_SW REUNION_R64_NW BOM_LAT BOM_LON BOM_TYPE BOM_WIND BOM_PRES BOM_TNUM BOM_CI BOM_RMW BOM_R34_NE BOM_R34_SE BOM_R34_SW BOM_R34_NW BOM_R50_NE BOM_R50_SE BOM_R50_SW BOM_R50_NW BOM_R64_NE BOM_R64_SE BOM_R64_SW BOM_R64_NW BOM_ROCI BOM_POCI BOM_EYE BOM_POS_METHOD BOM_PRES_METHOD NADI_LAT NADI_LON NADI_CAT NADI_WIND NADI_PRES WELLINGTON_LAT WELLINGTON_LON WELLINGTON_WIND WELLINGTON_PRES DS824_LAT DS824_LON DS824_STAGE DS824_WIND DS824_PRES TD9636_LAT TD9636_LON TD9636_STAGE TD9636_WIND TD9636_PRES TD9635_LAT TD9635_LON TD9635_WIND TD9635_PRES TD9635_ROCI NEUMANN_LAT NEUMANN_LON NEUMANN_CLASS NEUMANN_WIND NEUMANN_PRES MLC_LAT MLC_LON MLC_CLASS MLC_WIND MLC_PRES USA_GUST BOM_GUST BOM_GUST_PER REUNION_GUST REUNION_GUST_PER USA_SEAHGT USA_SEARAD_NE USA_SEARAD_SE USA_SEARAD_SW USA_SEARAD_NW STORM_SPEED STORM_DIR
1979033S18151 1979 7 SP EA NOT_NAMED 1979-02-01 12:00:00 TS -18.0000 150.500 main 313 313 O________OO_O_ jtwc_sh SH111979 -18.0000 150.500 25 -1 -18.0000 150.500 TC 25 -18.0000 150.500 1 -18.0000 150.500 TC 25 16 31
1979033S18151 1979 7 SP EA NOT_NAMED 1979-02-01 15:00:00 TS -17.2977 150.944 main 401 401 P________PP_P_ SH111979 -17.2951 150.933 27 -1 -17.2951 150.933 TC 27 -17.3053 150.976 1 -17.2951 150.933 TC 27 17 32
1979033S18151 1979 7 SP EA NOT_NAMED 1979-02-01 18:00:00 TS -16.6045 151.415 main 496 496 O________OP_O_ jtwc_sh SH111979 -16.6000 151.400 30 -1 -16.6000 151.400 TC 30 -16.6180 151.460 1 -16.6000 151.400 TC 30 17 35
1979033S18151 1979 7 SP EA NOT_NAMED 1979-02-01 21:00:00 TS -15.9323 151.937 main 591 561 P________PP_P_ SH111979 -15.9274 151.927 30 -1 -15.9274 151.927 TC 30 -15.9468 151.964 1 -15.9274 151.927 TC 30 17 39
1979033S18151 1979 7 SP EA NOT_NAMED 1979-02-02 00:00:00 TS -15.3000 152.500 main 561 522 O________OO_O_ jtwc_sh SH111979 -15.3000 152.500 30 -1 -15.3000 152.500 TC 30 -15.3000 152.500 1 -15.3000 152.500 TC 30 17 42
1979033S18151 1979 7 SP EA NOT_NAMED 1979-02-02 03:00:00 TS -14.7173 153.083 main 527 511 P________PP_P_ SH111979 -14.7274 153.085 32 -1 -14.7274 153.085 TC 32 -14.6870 153.076 1 -14.7274 153.085 TC 32 16 46
1979033S18151 1979 7 SP EA NOT_NAMED 1979-02-02 06:00:00 TS -14.1805 153.697 main 518 514 O________OP_O_ jtwc_sh SH111979 -14.2000 153.700 35 0 -14.2000 153.700 TC 35 -14.1222 153.690 1 -14.2000 153.700 TC 35 16 49
1979033S18151 1979 7 SP EA NOT_NAMED 1979-02-02 09:00:00 TS -13.6577 154.340 main 523 523 P________PP_P_ SH111979 -13.6699 154.342 35 0 -13.6699 154.342 TC 35 -13.6212 154.333 1 -13.6699 154.342 TC 35 16 52
1979033S18151 1979 7 SP EA NOT_NAMED 1979-02-02 12:00:00 TS -13.2000 155.000 main 551 528 O________OO_O_ jtwc_sh SH111979 -13.2000 155.000 35 0 -13.2000 155.000 TC 35 -13.2000 155.000 1 -13.2000 155.000 TC 35 15 55
1979033S18151 1979 7 SP EA NOT_NAMED 1979-02-02 15:00:00 TS -12.7958 155.625 main 528 470 P________PP_P_ SH111979 -12.7972 155.635 35 0 -12.7972 155.635 TC 35 -12.7916 155.594 1 -12.7972 155.635 TC 35 14 60
1979033S18151 1979 7 SP EA NOT_NAMED 1979-02-02 18:00:00 TS -12.4929 156.280 main 466 422 O________OP_O_ jtwc_sh SH111979 -12.5000 156.300 35 0 -12.5000 156.300 TC 35 -12.4716 156.222 1 -12.5000 156.300 TC 35 14 69
1979033S18151 1979 7 SP EA NOT_NAMED 1979-02-02 21:00:00 TS -12.2835 156.966 main 414 353 P________PP_P_ SH111979 -12.2893 156.975 37 0 -12.2893 156.975 TC 37 -12.2660 156.939 1 -12.2893 156.975 TC 37 15 79
1979033S18151 1979 7 SP EA NOT_NAMED 1979-02-03 00:00:00 TS -12.2000 157.800 main 346 290 O________OO_O_ jtwc_sh SH111979 -12.2000 157.800 40 0 -12.2000 157.800 TC 40 -12.2000 157.800 1 25 -12.2000 157.800 TC 40 19 87
1979033S18151 1979 7 SP EA NOT_NAMED 1979-02-03 03:00:00 TS -12.1781 158.884 main 286 244 P________PP_P_ SH111979 -12.1674 158.868 40 0 -12.1674 158.868 TC 40 -12.2101 158.931 1 -12.1674 158.868 TC 40 23 93
1979033S18151 1979 7 SP MM NOT_NAMED 1979-02-03 06:00:00 TS -12.3154 160.125 main 244 205 O________OP_O_ jtwc_sh SH111979 -12.3000 160.100 40 0 -12.3000 160.100 TC 40 -12.3617 160.199 1 -12.3000 160.100 TC 40 25 100
1979033S18151 1979 7 SP MM NOT_NAMED 1979-02-03 09:00:00 TS -12.6164 161.440 main 206 204 P________PP_P_ SH111979 -12.6028 161.423 40 0 -12.6028 161.423 TC 40 -12.6570 161.492 1 -12.6028 161.423 TC 40 26 107
1979033S18151 1979 7 SP MM NOT_NAMED 1979-02-03 12:00:00 TS -13.1000 162.700 main 261 261 O________OO_O_ jtwc_sh SH111979 -13.1000 162.700 40 0 -13.1000 162.700 TC 40 -13.1000 162.700 2 -13.1000 162.700 TC 40 25 116
1979033S18151 1979 7 SP MM NOT_NAMED 1979-02-03 15:00:00 TS -13.7262 163.779 main 316 198 P________PP_P_ SH111979 -13.7469 163.782 40 0 -13.7469 163.782 TC 40 -13.6641 163.770 2 -13.7469 163.782 TC 40 24 125
1979033S18151 1979 7 SP MM NOT_NAMED 1979-02-03 18:00:00 TS -14.4673 164.708 main 196 112 O________OP_O_ jtwc_sh SH111979 -14.5000 164.700 40 0 -14.5000 164.700 TC 40 -14.3693 164.731 2 -14.5000 164.700 TC 40 23 131
1979033S18151 1979 7 SP MM NOT_NAMED 1979-02-03 21:00:00 TS -15.2117 165.543 main 116 69 P________PP_P_ SH111979 -15.2273 165.540 40 0 -15.2273 165.540 TC 40 -15.1649 165.552 2 -15.2273 165.540 TC 40 21 137
1979033S18151 1979 7 SP MM NOT_NAMED 1979-02-04 00:00:00 TS -16.0000 166.200 main 72 69 O________OO_O_ jtwc_sh SH111979 -16.0000 166.200 40 0 -16.0000 166.200 TC 40 -16.0000 166.200 2 35 -16.0000 166.200 TC 40 20 146
1979033S18151 1979 7 SP MM NOT_NAMED 1979-02-04 03:00:00 TS -16.8383 166.692 main 81 81 P________PP_P_ SH111979 -16.8422 166.690 40 0 -16.8422 166.690 TC 40 -16.8265 166.698 2 -16.8422 166.690 TC 40 19 156
1979033S18151 1979 7 SP MM NOT_NAMED 1979-02-04 06:00:00 TS -17.6944 167.005 main 134 134 O________OP_O_ jtwc_sh SH111979 -17.7000 167.000 40 0 -17.7000 167.000 TC 40 -17.6774 167.022 2 -17.7000 167.000 TC 40 18 164
1979033S18151 1979 7 SP MM NOT_NAMED 1979-02-04 09:00:00 TS -18.5204 167.199 main 214 214 P________PP_P_ SH111979 -18.5223 167.196 40 0 -18.5223 167.196 TC 40 -18.5147 167.210 2 -18.5223 167.196 TC 40 16 170
1979033S18151 1979 7 SP MM NOT_NAMED 1979-02-04 12:00:00 TS -19.3000 167.300 main 274 215 O________OO_O_ jtwc_sh SH111979 -19.3000 167.300 40 0 -19.3000 167.300 TC 40 -19.3000 167.300 2 -19.3000 167.300 TC 40 15 171
1979033S18151 1979 7 SP MM NOT_NAMED 1979-02-04 15:00:00 TS -20.0346 167.445 main 215 159 P________PP_P_ SH111979 -20.0375 167.445 40 0 -20.0375 167.445 TC 40 -20.0261 167.447 2 -20.0375 167.445 TC 40 14 172
1979033S18151 1979 7 SP MM NOT_NAMED 1979-02-04 18:00:00 TS -20.6977 167.499 main 159 103 O________OP_O_ jtwc_sh SH111979 -20.7000 167.500 40 0 -20.7000 167.500 TC 40 -20.6907 167.497 2 -20.7000 167.500 TC 40 13 181
1979033S18151 1979 7 SP MM NOT_NAMED 1979-02-04 21:00:00 TS -21.2923 167.436 main 103 45 P________PP_P_ SH111979 -21.2947 167.440 40 0 -21.2947 167.440 TC 40 -21.2851 167.424 2 -21.2947 167.440 TC 40 11 194
1979033S18151 1979 7 SP MM NOT_NAMED 1979-02-05 00:00:00 TS -21.8000 167.200 main 45 0 O________OO_O_ jtwc_sh SH111979 -21.8000 167.200 40 0 -21.8000 167.200 TC 40 -21.8000 167.200 2 40 -21.8000 167.200 TC 40 11 213
1979033S18151 1979 7 SP MM NOT_NAMED 1979-02-05 03:00:00 TS -22.2427 166.779 main 0 0 P________PP_P_ SH111979 -22.2375 166.768 40 0 -22.2375 166.768 TC 40 -22.2580 166.815 2 -22.2375 166.768 TC 40 12 228
1979033S18151 1979 7 SP MM NOT_NAMED 1979-02-05 06:00:00 TS -22.6089 166.220 main 39 39 O________OP_O_ jtwc_sh SH111979 -22.6000 166.200 40 0 -22.6000 166.200 TC 40 -22.6358 166.282 2 -22.6000 166.200 TC 40 13 237
1979033S18151 1979 7 SP MM NOT_NAMED 1979-02-05 09:00:00 TS -22.9338 165.626 main 103 103 P________PP_P_ SH111979 -22.9299 165.615 40 0 -22.9299 165.615 TC 40 -22.9454 165.658 2 -22.9299 165.615 TC 40 13 242
1979033S18151 1979 7 SP MM NOT_NAMED 1979-02-05 12:00:00 TS -23.2000 165.000 main 166 166 O________OO_O_ jtwc_sh SH111979 -23.2000 165.000 40 0 -23.2000 165.000 TC 40 -23.2000 165.000 2 -23.2000 165.000 TC 40 12 246
1979033S18151 1979 7 SP MM NOT_NAMED 1979-02-05 15:00:00 TS -23.4259 164.404 main 220 220 P________PP_P_ SH111979 -23.4222 164.407 -1 -23.4222 164.407 TC -23.4371 164.396 2 -23.4222 164.407 TC 37 12 250
1979033S18151 1979 7 SP MM NOT_NAMED 1979-02-05 18:00:00 TS -23.6061 163.793 main 270 270 O________OP_O_ jtwc_sh SH111979 -23.6000 163.800 -1 -23.6000 163.800 TC -23.6245 163.771 2 -23.6000 163.800 TC 35 12 253
1979033S18151 1979 7 SP MM NOT_NAMED 1979-02-05 21:00:00 TS -23.7673 163.147 main 325 325 P________PP_P_ SH111979 -23.7649 163.150 -1 -23.7649 163.150 TC -23.7746 163.136 2 -23.7649 163.150 TC 35 12 256
1979033S18151 1979 7 SP MM NOT_NAMED 1979-02-06 00:00:00 TS -23.9000 162.500 main 372 372 O________OO_O_ jtwc_sh SH111979 -23.9000 162.500 -1 -23.9000 162.500 TC -23.9000 162.500 2 40 -23.9000 162.500 TC 35 12 258
1979033S18151 1979 7 SP MM NOT_NAMED 1979-02-06 03:00:00 TS -24.0063 161.898 main 423 423 P________PP_P_ SH111979 -24.0071 161.900 -1 -24.0071 161.900 TC -24.0039 161.894 2 -24.0071 161.900 TC 32 11 260
1979033S18151 1979 7 SP MM NOT_NAMED 1979-02-06 06:00:00 TS -24.0976 161.296 main 476 476 O________OP_O_ jtwc_sh SH111979 -24.1000 161.300 -1 -24.1000 161.300 TC -24.0905 161.285 2 -24.1000 161.300 TC 30 11 261
1979033S18151 1979 7 SP MM NOT_NAMED 1979-02-06 09:00:00 TS -24.1896 160.663 main 532 532 P________PP_P_ SH111979 -24.1922 160.665 -1 -24.1922 160.665 TC -24.1819 160.659 2 -24.1922 160.665 TC 30 12 260
1979033S18151 1979 7 SP MM NOT_NAMED 1979-02-06 12:00:00 TS -24.3000 160.000 main 597 597 O________OO_O_ jtwc_sh SH111979 -24.3000 160.000 -1 -24.3000 160.000 TC -24.3000 160.000 2 -24.3000 160.000 TC 30 13 259
1979033S18151 1979 7 SP EA NOT_NAMED 1979-02-06 15:00:00 TS -24.4355 159.316 main 599 526 P________PP_P_ SH111979 -24.4271 159.322 -1 -24.4271 159.322 TC -24.4607 159.296 2 -24.4271 159.322 TC 30 13 256
1979033S18151 1979 7 SP EA NOT_NAMED 1979-02-06 18:00:00 TS -24.6141 158.588 main 526 454 O________OP_O_ jtwc_sh SH111979 -24.6000 158.600 -1 -24.6000 158.600 TC -24.6564 158.554 2 -24.6000 158.600 TC 30 14 253
1979033S18151 1979 7 SP EA NOT_NAMED 1979-02-06 21:00:00 TS -24.8436 157.810 main 444 362 P________PP_P_ SH111979 -24.8335 157.818 -1 -24.8335 157.818 TC -24.8739 157.784 2 -24.8335 157.818 TC 30 15 251
1979033S18151 1979 7 SP EA NOT_NAMED 1979-02-07 00:00:00 TS -25.1000 157.000 main 362 O________OO_O_ jtwc_sh SH111979 -25.1000 157.000 -1 -25.1000 157.000 TC -25.1000 157.000 1 -25.1000 157.000 TC 30 16 251

Digital Typhoon Data and Search

About IBTrACS Database

This database is a web-friendly format of International Best Track Archive for Climate Stewardship (IBTrACS), a global best track data archive curated by NOAA dating back to 1842.

Updated: 2021-12-03